sensor_id;sensor_type;location;lat;lon;timestamp;P1;durP1;ratioP1;P2;durP2;ratioP2
56457;SDS011;42360;42.918;12.366;2023-04-15T00:01:26;3.42;;;1.35;;
56457;SDS011;42360;42.918;12.366;2023-04-15T00:03:53;2.92;;;1.40;;
56457;SDS011;42360;42.918;12.366;2023-04-15T00:06:22;2.63;;;1.23;;
56457;SDS011;42360;42.918;12.366;2023-04-15T00:08:48;1.98;;;1.27;;
56457;SDS011;42360;42.918;12.366;2023-04-15T00:11:14;4.50;;;1.40;;
56457;SDS011;42360;42.918;12.366;2023-04-15T00:13:40;2.13;;;1.52;;
56457;SDS011;42360;42.918;12.366;2023-04-15T00:16:06;3.13;;;1.33;;
56457;SDS011;42360;42.918;12.366;2023-04-15T00:18:32;2.45;;;1.55;;
56457;SDS011;42360;42.918;12.366;2023-04-15T00:20:58;3.40;;;1.45;;
56457;SDS011;42360;42.918;12.366;2023-04-15T00:23:24;2.88;;;1.20;;
56457;SDS011;42360;42.918;12.366;2023-04-15T00:25:50;4.78;;;1.42;;
56457;SDS011;42360;42.918;12.366;2023-04-15T00:28:16;2.45;;;1.38;;
56457;SDS011;42360;42.918;12.366;2023-04-15T00:30:41;1.80;;;1.70;;
56457;SDS011;42360;42.918;12.366;2023-04-15T00:33:08;2.53;;;1.67;;
56457;SDS011;42360;42.918;12.366;2023-04-15T00:35:34;5.30;;;1.85;;
56457;SDS011;42360;42.918;12.366;2023-04-15T00:38:00;2.13;;;1.40;;
56457;SDS011;42360;42.918;12.366;2023-04-15T00:40:26;2.50;;;1.60;;
56457;SDS011;42360;42.918;12.366;2023-04-15T00:42:51;3.28;;;1.65;;
56457;SDS011;42360;42.918;12.366;2023-04-15T00:45:17;3.53;;;1.67;;
56457;SDS011;42360;42.918;12.366;2023-04-15T00:47:43;3.40;;;1.40;;
56457;SDS011;42360;42.918;12.366;2023-04-15T00:50:09;2.35;;;1.50;;
56457;SDS011;42360;42.918;12.366;2023-04-15T00:52:35;3.10;;;1.70;;
56457;SDS011;42360;42.918;12.366;2023-04-15T00:55:01;1.50;;;1.40;;
56457;SDS011;42360;42.918;12.366;2023-04-15T00:57:28;2.25;;;1.73;;
56457;SDS011;42360;42.918;12.366;2023-04-15T00:59:54;2.33;;;1.70;;
56457;SDS011;42360;42.918;12.366;2023-04-15T01:02:20;2.92;;;1.65;;
56457;SDS011;42360;42.918;12.366;2023-04-15T01:04:46;1.83;;;1.50;;
56457;SDS011;42360;42.918;12.366;2023-04-15T01:07:12;2.55;;;1.23;;
56457;SDS011;42360;42.918;12.366;2023-04-15T01:09:38;2.90;;;1.30;;
56457;SDS011;42360;42.918;12.366;2023-04-15T01:12:03;1.70;;;1.60;;
56457;SDS011;42360;42.918;12.366;2023-04-15T01:14:31;2.13;;;1.52;;
56457;SDS011;42360;42.918;12.366;2023-04-15T01:16:57;2.22;;;1.52;;
56457;SDS011;42360;42.918;12.366;2023-04-15T01:19:23;1.50;;;1.27;;
56457;SDS011;42360;42.918;12.366;2023-04-15T01:21:48;2.10;;;1.40;;
56457;SDS011;42360;42.918;12.366;2023-04-15T01:24:14;3.53;;;1.60;;
56457;SDS011;42360;42.918;12.366;2023-04-15T01:26:42;2.10;;;1.17;;
56457;SDS011;42360;42.918;12.366;2023-04-15T01:29:07;2.00;;;1.40;;
56457;SDS011;42360;42.918;12.366;2023-04-15T01:31:33;3.97;;;1.38;;
56457;SDS011;42360;42.918;12.366;2023-04-15T01:33:59;1.60;;;1.20;;
56457;SDS011;42360;42.918;12.366;2023-04-15T01:36:25;3.78;;;1.00;;
56457;SDS011;42360;42.918;12.366;2023-04-15T01:38:51;1.63;;;1.15;;
56457;SDS011;42360;42.918;12.366;2023-04-15T01:41:20;2.05;;;0.95;;
56457;SDS011;42360;42.918;12.366;2023-04-15T01:43:47;1.92;;;1.08;;
56457;SDS011;42360;42.918;12.366;2023-04-15T01:46:13;1.10;;;1.05;;
56457;SDS011;42360;42.918;12.366;2023-04-15T01:48:38;3.03;;;1.05;;
56457;SDS011;42360;42.918;12.366;2023-04-15T01:51:04;1.10;;;1.00;;
56457;SDS011;42360;42.918;12.366;2023-04-15T01:53:29;1.42;;;1.05;;
56457;SDS011;42360;42.918;12.366;2023-04-15T01:55:55;1.30;;;1.00;;
56457;SDS011;42360;42.918;12.366;2023-04-15T01:58:21;1.33;;;1.15;;
56457;SDS011;42360;42.918;12.366;2023-04-15T02:00:46;1.30;;;1.10;;
56457;SDS011;42360;42.918;12.366;2023-04-15T02:03:12;1.05;;;0.95;;
56457;SDS011;42360;42.918;12.366;2023-04-15T02:05:37;1.23;;;1.10;;
56457;SDS011;42360;42.918;12.366;2023-04-15T02:08:03;1.10;;;1.10;;
56457;SDS011;42360;42.918;12.366;2023-04-15T02:10:28;2.13;;;1.27;;
56457;SDS011;42360;42.918;12.366;2023-04-15T02:12:56;2.55;;;1.40;;
56457;SDS011;42360;42.918;12.366;2023-04-15T02:15:22;1.40;;;1.13;;
56457;SDS011;42360;42.918;12.366;2023-04-15T02:17:47;2.75;;;1.55;;
56457;SDS011;42360;42.918;12.366;2023-04-15T02:20:15;3.80;;;1.42;;
56457;SDS011;42360;42.918;12.366;2023-04-15T02:22:42;3.15;;;1.45;;
56457;SDS011;42360;42.918;12.366;2023-04-15T02:25:07;2.65;;;1.30;;
56457;SDS011;42360;42.918;12.366;2023-04-15T02:27:34;3.38;;;1.58;;
56457;SDS011;42360;42.918;12.366;2023-04-15T02:30:00;2.13;;;1.20;;
56457;SDS011;42360;42.918;12.366;2023-04-15T02:32:26;3.15;;;1.20;;
56457;SDS011;42360;42.918;12.366;2023-04-15T02:34:51;5.50;;;1.90;;
56457;SDS011;42360;42.918;12.366;2023-04-15T02:37:17;1.73;;;1.38;;
56457;SDS011;42360;42.918;12.366;2023-04-15T02:39:44;5.68;;;1.60;;
56457;SDS011;42360;42.918;12.366;2023-04-15T02:42:10;1.80;;;1.30;;
56457;SDS011;42360;42.918;12.366;2023-04-15T02:44:38;1.25;;;1.13;;
56457;SDS011;42360;42.918;12.366;2023-04-15T02:47:03;2.50;;;1.30;;
56457;SDS011;42360;42.918;12.366;2023-04-15T02:49:31;2.83;;;1.58;;
56457;SDS011;42360;42.918;12.366;2023-04-15T02:51:56;1.52;;;1.40;;
56457;SDS011;42360;42.918;12.366;2023-04-15T02:54:24;4.20;;;1.73;;
56457;SDS011;42360;42.918;12.366;2023-04-15T02:56:50;2.67;;;1.40;;
56457;SDS011;42360;42.918;12.366;2023-04-15T02:59:19;2.95;;;1.75;;
56457;SDS011;42360;42.918;12.366;2023-04-15T03:01:45;0.95;;;0.85;;
56457;SDS011;42360;42.918;12.366;2023-04-15T03:04:10;2.10;;;1.40;;
56457;SDS011;42360;42.918;12.366;2023-04-15T03:06:36;0.52;;;0.52;;
56457;SDS011;42360;42.918;12.366;2023-04-15T03:09:01;6.53;;;1.13;;
56457;SDS011;42360;42.918;12.366;2023-04-15T03:11:31;1.15;;;0.85;;
56457;SDS011;42360;42.918;12.366;2023-04-15T03:13:56;2.28;;;1.95;;
56457;SDS011;42360;42.918;12.366;2023-04-15T03:16:23;2.33;;;1.33;;
56457;SDS011;42360;42.918;12.366;2023-04-15T03:18:49;3.42;;;1.73;;
56457;SDS011;42360;42.918;12.366;2023-04-15T03:21:14;1.30;;;1.20;;
56457;SDS011;42360;42.918;12.366;2023-04-15T03:23:40;2.15;;;1.50;;
56457;SDS011;42360;42.918;12.366;2023-04-15T03:26:05;3.75;;;1.90;;
56457;SDS011;42360;42.918;12.366;2023-04-15T03:28:31;1.88;;;1.38;;
56457;SDS011;42360;42.918;12.366;2023-04-15T03:30:57;3.78;;;1.35;;
56457;SDS011;42360;42.918;12.366;2023-04-15T03:33:22;2.33;;;1.20;;
56457;SDS011;42360;42.918;12.366;2023-04-15T03:35:49;3.13;;;1.33;;
56457;SDS011;42360;42.918;12.366;2023-04-15T03:38:15;1.83;;;1.30;;
56457;SDS011;42360;42.918;12.366;2023-04-15T03:40:41;3.42;;;1.40;;
56457;SDS011;42360;42.918;12.366;2023-04-15T03:43:06;2.55;;;1.20;;
56457;SDS011;42360;42.918;12.366;2023-04-15T03:45:32;2.78;;;1.75;;
56457;SDS011;42360;42.918;12.366;2023-04-15T03:47:57;5.70;;;1.70;;
56457;SDS011;42360;42.918;12.366;2023-04-15T03:50:23;2.03;;;1.40;;
56457;SDS011;42360;42.918;12.366;2023-04-15T03:52:49;2.80;;;1.85;;
56457;SDS011;42360;42.918;12.366;2023-04-15T03:55:14;1.85;;;1.65;;
56457;SDS011;42360;42.918;12.366;2023-04-15T03:57:40;1.85;;;1.17;;
56457;SDS011;42360;42.918;12.366;2023-04-15T04:00:06;2.80;;;2.03;;
56457;SDS011;42360;42.918;12.366;2023-04-15T04:02:35;3.35;;;0.95;;
56457;SDS011;42360;42.918;12.366;2023-04-15T04:05:01;2.25;;;1.40;;
56457;SDS011;42360;42.918;12.366;2023-04-15T04:07:27;2.85;;;1.55;;
56457;SDS011;42360;42.918;12.366;2023-04-15T04:09:52;3.08;;;1.08;;
56457;SDS011;42360;42.918;12.366;2023-04-15T04:12:17;2.55;;;1.27;;
56457;SDS011;42360;42.918;12.366;2023-04-15T04:14:43;2.40;;;1.15;;
56457;SDS011;42360;42.918;12.366;2023-04-15T04:17:08;3.85;;;1.20;;
56457;SDS011;42360;42.918;12.366;2023-04-15T04:19:34;5.22;;;1.80;;
56457;SDS011;42360;42.918;12.366;2023-04-15T04:22:00;2.97;;;1.20;;
56457;SDS011;42360;42.918;12.366;2023-04-15T04:24:28;2.40;;;1.08;;
56457;SDS011;42360;42.918;12.366;2023-04-15T04:26:54;4.72;;;1.40;;
56457;SDS011;42360;42.918;12.366;2023-04-15T04:29:21;1.92;;;1.40;;
56457;SDS011;42360;42.918;12.366;2023-04-15T04:31:46;1.75;;;1.20;;
56457;SDS011;42360;42.918;12.366;2023-04-15T04:34:12;1.95;;;1.27;;
56457;SDS011;42360;42.918;12.366;2023-04-15T04:36:38;3.22;;;1.60;;
56457;SDS011;42360;42.918;12.366;2023-04-15T04:39:04;3.03;;;1.52;;
56457;SDS011;42360;42.918;12.366;2023-04-15T04:41:29;3.42;;;1.70;;
56457;SDS011;42360;42.918;12.366;2023-04-15T04:43:56;5.93;;;1.90;;
56457;SDS011;42360;42.918;12.366;2023-04-15T04:46:21;3.25;;;2.42;;
56457;SDS011;42360;42.918;12.366;2023-04-15T04:48:47;5.22;;;2.67;;
56457;SDS011;42360;42.918;12.366;2023-04-15T04:51:13;3.80;;;2.55;;
56457;SDS011;42360;42.918;12.366;2023-04-15T04:53:38;3.72;;;2.55;;
56457;SDS011;42360;42.918;12.366;2023-04-15T04:56:04;2.95;;;2.60;;
56457;SDS011;42360;42.918;12.366;2023-04-15T04:58:30;4.30;;;2.75;;
56457;SDS011;42360;42.918;12.366;2023-04-15T05:00:56;2.45;;;2.25;;
56457;SDS011;42360;42.918;12.366;2023-04-15T05:03:22;3.10;;;2.70;;
56457;SDS011;42360;42.918;12.366;2023-04-15T05:05:48;5.80;;;2.28;;
56457;SDS011;42360;42.918;12.366;2023-04-15T05:08:13;4.82;;;2.60;;
56457;SDS011;42360;42.918;12.366;2023-04-15T05:10:40;5.57;;;2.60;;
56457;SDS011;42360;42.918;12.366;2023-04-15T05:13:05;2.70;;;2.50;;
56457;SDS011;42360;42.918;12.366;2023-04-15T05:15:31;3.90;;;3.10;;
56457;SDS011;42360;42.918;12.366;2023-04-15T05:17:58;4.05;;;2.47;;
56457;SDS011;42360;42.918;12.366;2023-04-15T05:20:24;3.70;;;2.53;;
56457;SDS011;42360;42.918;12.366;2023-04-15T05:22:50;2.88;;;2.40;;
56457;SDS011;42360;42.918;12.366;2023-04-15T05:25:15;2.88;;;2.33;;
56457;SDS011;42360;42.918;12.366;2023-04-15T05:27:41;5.07;;;2.53;;
56457;SDS011;42360;42.918;12.366;2023-04-15T05:30:06;3.72;;;2.55;;
56457;SDS011;42360;42.918;12.366;2023-04-15T05:32:33;2.60;;;2.40;;
56457;SDS011;42360;42.918;12.366;2023-04-15T05:34:58;4.50;;;2.47;;
56457;SDS011;42360;42.918;12.366;2023-04-15T05:37:24;4.07;;;2.42;;
56457;SDS011;42360;42.918;12.366;2023-04-15T05:39:50;2.63;;;2.30;;
56457;SDS011;42360;42.918;12.366;2023-04-15T05:42:16;3.70;;;2.05;;
56457;SDS011;42360;42.918;12.366;2023-04-15T05:44:41;2.75;;;2.25;;
56457;SDS011;42360;42.918;12.366;2023-04-15T05:47:07;3.58;;;2.70;;
56457;SDS011;42360;42.918;12.366;2023-04-15T05:49:33;4.25;;;2.58;;
56457;SDS011;42360;42.918;12.366;2023-04-15T05:51:59;4.30;;;2.53;;
56457;SDS011;42360;42.918;12.366;2023-04-15T05:54:25;6.78;;;2.60;;
56457;SDS011;42360;42.918;12.366;2023-04-15T05:56:52;4.00;;;2.28;;
56457;SDS011;42360;42.918;12.366;2023-04-15T05:59:17;7.85;;;3.45;;
56457;SDS011;42360;42.918;12.366;2023-04-15T06:01:43;5.03;;;2.50;;
56457;SDS011;42360;42.918;12.366;2023-04-15T06:04:09;4.15;;;2.17;;
56457;SDS011;42360;42.918;12.366;2023-04-15T06:06:35;3.85;;;2.20;;
56457;SDS011;42360;42.918;12.366;2023-04-15T06:09:02;4.47;;;2.30;;
56457;SDS011;42360;42.918;12.366;2023-04-15T06:11:28;6.93;;;2.90;;
56457;SDS011;42360;42.918;12.366;2023-04-15T06:13:53;4.95;;;3.17;;
56457;SDS011;42360;42.918;12.366;2023-04-15T06:16:19;4.90;;;3.10;;
56457;SDS011;42360;42.918;12.366;2023-04-15T06:18:44;2.90;;;2.42;;
56457;SDS011;42360;42.918;12.366;2023-04-15T06:21:10;3.22;;;2.25;;
56457;SDS011;42360;42.918;12.366;2023-04-15T06:23:35;4.55;;;2.63;;
56457;SDS011;42360;42.918;12.366;2023-04-15T06:26:01;3.05;;;2.75;;
56457;SDS011;42360;42.918;12.366;2023-04-15T06:28:27;3.75;;;2.65;;
56457;SDS011;42360;42.918;12.366;2023-04-15T06:30:53;4.07;;;2.92;;
56457;SDS011;42360;42.918;12.366;2023-04-15T06:33:20;3.03;;;2.60;;
56457;SDS011;42360;42.918;12.366;2023-04-15T06:35:45;3.95;;;3.28;;
56457;SDS011;42360;42.918;12.366;2023-04-15T06:38:11;6.95;;;4.13;;
56457;SDS011;42360;42.918;12.366;2023-04-15T06:40:37;4.13;;;3.22;;
56457;SDS011;42360;42.918;12.366;2023-04-15T06:43:02;4.03;;;2.47;;
56457;SDS011;42360;42.918;12.366;2023-04-15T06:45:29;4.60;;;2.95;;
56457;SDS011;42360;42.918;12.366;2023-04-15T06:47:55;6.75;;;3.00;;
56457;SDS011;42360;42.918;12.366;2023-04-15T06:50:20;6.85;;;2.40;;
56457;SDS011;42360;42.918;12.366;2023-04-15T06:52:46;5.40;;;1.70;;
56457;SDS011;42360;42.918;12.366;2023-04-15T06:55:11;3.25;;;1.83;;
56457;SDS011;42360;42.918;12.366;2023-04-15T06:57:37;9.07;;;1.65;;
56457;SDS011;42360;42.918;12.366;2023-04-15T07:00:02;4.60;;;2.10;;
56457;SDS011;42360;42.918;12.366;2023-04-15T07:02:29;3.08;;;1.90;;
56457;SDS011;42360;42.918;12.366;2023-04-15T07:04:55;4.63;;;1.92;;
56457;SDS011;42360;42.918;12.366;2023-04-15T07:07:21;3.95;;;2.13;;
56457;SDS011;42360;42.918;12.366;2023-04-15T07:09:46;7.78;;;1.98;;
56457;SDS011;42360;42.918;12.366;2023-04-15T07:12:12;4.28;;;2.00;;
56457;SDS011;42360;42.918;12.366;2023-04-15T07:14:37;3.42;;;1.80;;
56457;SDS011;42360;42.918;12.366;2023-04-15T07:17:03;3.78;;;1.70;;
56457;SDS011;42360;42.918;12.366;2023-04-15T07:19:28;2.83;;;1.55;;
56457;SDS011;42360;42.918;12.366;2023-04-15T07:21:54;2.58;;;1.42;;
56457;SDS011;42360;42.918;12.366;2023-04-15T07:24:19;6.50;;;1.55;;
56457;SDS011;42360;42.918;12.366;2023-04-15T07:26:47;6.95;;;1.65;;
56457;SDS011;42360;42.918;12.366;2023-04-15T07:29:12;3.33;;;1.50;;
56457;SDS011;42360;42.918;12.366;2023-04-15T07:31:38;2.22;;;1.13;;
56457;SDS011;42360;42.918;12.366;2023-04-15T07:34:06;2.50;;;1.23;;
56457;SDS011;42360;42.918;12.366;2023-04-15T07:36:31;8.10;;;1.52;;
56457;SDS011;42360;42.918;12.366;2023-04-15T07:38:57;10.05;;;3.20;;
56457;SDS011;42360;42.918;12.366;2023-04-15T07:41:23;11.35;;;5.15;;
56457;SDS011;42360;42.918;12.366;2023-04-15T07:43:49;7.97;;;3.05;;
56457;SDS011;42360;42.918;12.366;2023-04-15T07:46:15;4.25;;;1.63;;
56457;SDS011;42360;42.918;12.366;2023-04-15T07:48:41;6.72;;;3.50;;
56457;SDS011;42360;42.918;12.366;2023-04-15T07:51:06;6.07;;;1.30;;
56457;SDS011;42360;42.918;12.366;2023-04-15T07:53:32;3.42;;;1.75;;
56457;SDS011;42360;42.918;12.366;2023-04-15T07:55:58;5.57;;;1.40;;
56457;SDS011;42360;42.918;12.366;2023-04-15T07:58:23;4.18;;;1.25;;
56457;SDS011;42360;42.918;12.366;2023-04-15T08:00:50;5.38;;;2.22;;
56457;SDS011;42360;42.918;12.366;2023-04-15T08:03:15;6.82;;;2.10;;
56457;SDS011;42360;42.918;12.366;2023-04-15T08:05:41;4.10;;;1.25;;
56457;SDS011;42360;42.918;12.366;2023-04-15T08:08:06;1.85;;;1.45;;
56457;SDS011;42360;42.918;12.366;2023-04-15T08:10:32;1.85;;;0.70;;
56457;SDS011;42360;42.918;12.366;2023-04-15T08:12:58;1.30;;;0.68;;
56457;SDS011;42360;42.918;12.366;2023-04-15T08:15:24;2.83;;;1.70;;
56457;SDS011;42360;42.918;12.366;2023-04-15T08:17:50;3.17;;;1.05;;
56457;SDS011;42360;42.918;12.366;2023-04-15T08:20:16;3.08;;;1.05;;
56457;SDS011;42360;42.918;12.366;2023-04-15T08:22:41;3.50;;;1.23;;
56457;SDS011;42360;42.918;12.366;2023-04-15T08:25:07;2.60;;;0.90;;
56457;SDS011;42360;42.918;12.366;2023-04-15T08:27:33;4.10;;;2.35;;
56457;SDS011;42360;42.918;12.366;2023-04-15T08:29:59;3.22;;;1.33;;
56457;SDS011;42360;42.918;12.366;2023-04-15T08:32:24;1.23;;;1.10;;
56457;SDS011;42360;42.918;12.366;2023-04-15T08:34:50;2.15;;;1.17;;
56457;SDS011;42360;42.918;12.366;2023-04-15T08:37:16;1.20;;;0.82;;
56457;SDS011;42360;42.918;12.366;2023-04-15T08:39:41;7.47;;;3.92;;
56457;SDS011;42360;42.918;12.366;2023-04-15T08:42:15;6.07;;;2.72;;
56457;SDS011;42360;42.918;12.366;2023-04-15T08:44:41;4.45;;;2.75;;
56457;SDS011;42360;42.918;12.366;2023-04-15T08:47:08;3.42;;;0.82;;
56457;SDS011;42360;42.918;12.366;2023-04-15T08:49:38;0.55;;;0.45;;
56457;SDS011;42360;42.918;12.366;2023-04-15T08:52:05;3.40;;;1.73;;
56457;SDS011;42360;42.918;12.366;2023-04-15T08:54:31;2.28;;;1.40;;
56457;SDS011;42360;42.918;12.366;2023-04-15T08:56:57;0.80;;;0.30;;
56457;SDS011;42360;42.918;12.366;2023-04-15T08:59:23;0.95;;;0.65;;
56457;SDS011;42360;42.918;12.366;2023-04-15T09:01:49;0.88;;;0.60;;
56457;SDS011;42360;42.918;12.366;2023-04-15T09:04:17;0.75;;;0.73;;
56457;SDS011;42360;42.918;12.366;2023-04-15T09:06:43;3.03;;;0.85;;
56457;SDS011;42360;42.918;12.366;2023-04-15T09:09:09;3.63;;;0.95;;
56457;SDS011;42360;42.918;12.366;2023-04-15T09:11:34;2.65;;;1.00;;
56457;SDS011;42360;42.918;12.366;2023-04-15T09:14:00;3.65;;;2.50;;
56457;SDS011;42360;42.918;12.366;2023-04-15T09:16:26;1.63;;;0.93;;
56457;SDS011;42360;42.918;12.366;2023-04-15T09:18:52;1.55;;;0.85;;
56457;SDS011;42360;42.918;12.366;2023-04-15T09:21:18;1.10;;;0.60;;
56457;SDS011;42360;42.918;12.366;2023-04-15T09:24:02;5.20;;;1.52;;
56457;SDS011;42360;42.918;12.366;2023-04-15T09:26:31;0.32;;;0.32;;
56457;SDS011;42360;42.918;12.366;2023-04-15T09:29:07;0.60;;;0.60;;
56457;SDS011;42360;42.918;12.366;2023-04-15T09:31:37;2.00;;;1.27;;
56457;SDS011;42360;42.918;12.366;2023-04-15T09:34:03;3.08;;;0.70;;
56457;SDS011;42360;42.918;12.366;2023-04-15T09:36:28;2.08;;;0.75;;
56457;SDS011;42360;42.918;12.366;2023-04-15T09:38:55;1.38;;;0.50;;
56457;SDS011;42360;42.918;12.366;2023-04-15T09:41:21;2.40;;;0.50;;
56457;SDS011;42360;42.918;12.366;2023-04-15T09:43:48;5.82;;;2.22;;
56457;SDS011;42360;42.918;12.366;2023-04-15T09:46:13;2.65;;;2.05;;
56457;SDS011;42360;42.918;12.366;2023-04-15T09:48:39;5.40;;;2.20;;
56457;SDS011;42360;42.918;12.366;2023-04-15T09:51:04;1.20;;;0.70;;
56457;SDS011;42360;42.918;12.366;2023-04-15T09:53:32;2.53;;;0.93;;
56457;SDS011;42360;42.918;12.366;2023-04-15T09:55:59;1.00;;;0.75;;
56457;SDS011;42360;42.918;12.366;2023-04-15T09:58:26;0.60;;;0.50;;
56457;SDS011;42360;42.918;12.366;2023-04-15T10:00:54;0.95;;;0.63;;
56457;SDS011;42360;42.918;12.366;2023-04-15T10:03:24;1.20;;;0.68;;
56457;SDS011;42360;42.918;12.366;2023-04-15T10:05:52;0.77;;;0.70;;
56457;SDS011;42360;42.918;12.366;2023-04-15T10:08:21;0.77;;;0.70;;
56457;SDS011;42360;42.918;12.366;2023-04-15T10:10:49;1.60;;;1.10;;
56457;SDS011;42360;42.918;12.366;2023-04-15T10:13:16;0.60;;;0.60;;
56457;SDS011;42360;42.918;12.366;2023-04-15T10:15:44;1.92;;;1.17;;
56457;SDS011;42360;42.918;12.366;2023-04-15T10:18:14;2.20;;;0.80;;
56457;SDS011;42360;42.918;12.366;2023-04-15T10:20:41;1.40;;;1.08;;
56457;SDS011;42360;42.918;12.366;2023-04-15T10:23:08;0.60;;;0.45;;
56457;SDS011;42360;42.918;12.366;2023-04-15T10:25:34;1.05;;;0.50;;
56457;SDS011;42360;42.918;12.366;2023-04-15T10:27:59;1.17;;;0.52;;
56457;SDS011;42360;42.918;12.366;2023-04-15T10:30:25;0.75;;;0.63;;
56457;SDS011;42360;42.918;12.366;2023-04-15T10:32:50;1.85;;;0.60;;
56457;SDS011;42360;42.918;12.366;2023-04-15T10:35:16;0.63;;;0.52;;
56457;SDS011;42360;42.918;12.366;2023-04-15T10:37:42;0.80;;;0.50;;
56457;SDS011;42360;42.918;12.366;2023-04-15T10:40:24;1.00;;;0.65;;
56457;SDS011;42360;42.918;12.366;2023-04-15T10:42:55;0.40;;;0.40;;
56457;SDS011;42360;42.918;12.366;2023-04-15T10:45:24;1.35;;;0.50;;
56457;SDS011;42360;42.918;12.366;2023-04-15T10:47:55;0.57;;;0.40;;
56457;SDS011;42360;42.918;12.366;2023-04-15T10:50:21;1.30;;;0.60;;
56457;SDS011;42360;42.918;12.366;2023-04-15T10:52:50;0.40;;;0.40;;
56457;SDS011;42360;42.918;12.366;2023-04-15T10:55:20;1.48;;;0.60;;
56457;SDS011;42360;42.918;12.366;2023-04-15T10:57:50;0.40;;;0.40;;
56457;SDS011;42360;42.918;12.366;2023-04-15T11:00:17;0.52;;;0.50;;
56457;SDS011;42360;42.918;12.366;2023-04-15T11:02:49;1.33;;;0.70;;
56457;SDS011;42360;42.918;12.366;2023-04-15T11:05:20;0.30;;;0.30;;
56457;SDS011;42360;42.918;12.366;2023-04-15T11:07:51;0.80;;;0.73;;
56457;SDS011;42360;42.918;12.366;2023-04-15T11:12:56;0.38;;;0.38;;
56457;SDS011;42360;42.918;12.366;2023-04-15T11:15:26;1.23;;;0.57;;
56457;SDS011;42360;42.918;12.366;2023-04-15T11:17:57;1.95;;;0.65;;
56457;SDS011;42360;42.918;12.366;2023-04-15T11:20:35;0.40;;;0.40;;
56457;SDS011;42360;42.918;12.366;2023-04-15T11:23:01;0.43;;;0.40;;
56457;SDS011;42360;42.918;12.366;2023-04-15T11:25:27;0.40;;;0.40;;
56457;SDS011;42360;42.918;12.366;2023-04-15T11:27:54;0.30;;;0.30;;
56457;SDS011;42360;42.918;12.366;2023-04-15T11:32:46;0.40;;;0.40;;
56457;SDS011;42360;42.918;12.366;2023-04-15T11:35:31;0.90;;;0.65;;
56457;SDS011;42360;42.918;12.366;2023-04-15T11:37:57;0.45;;;0.40;;
56457;SDS011;42360;42.918;12.366;2023-04-15T11:40:27;2.42;;;1.15;;
56457;SDS011;42360;42.918;12.366;2023-04-15T11:43:03;1.15;;;0.30;;
56457;SDS011;42360;42.918;12.366;2023-04-15T11:45:28;0.82;;;0.40;;
56457;SDS011;42360;42.918;12.366;2023-04-15T11:47:54;0.73;;;0.73;;
56457;SDS011;42360;42.918;12.366;2023-04-15T11:50:20;0.55;;;0.40;;
56457;SDS011;42360;42.918;12.366;2023-04-15T11:52:56;0.80;;;0.77;;
56457;SDS011;42360;42.918;12.366;2023-04-15T11:55:23;0.30;;;0.30;;
56457;SDS011;42360;42.918;12.366;2023-04-15T11:57:50;0.30;;;0.30;;
56457;SDS011;42360;42.918;12.366;2023-04-15T12:00:31;0.40;;;0.38;;
56457;SDS011;42360;42.918;12.366;2023-04-15T12:03:12;0.88;;;0.40;;
56457;SDS011;42360;42.918;12.366;2023-04-15T12:13:52;0.30;;;0.30;;
56457;SDS011;42360;42.918;12.366;2023-04-15T12:16:19;0.63;;;0.63;;
56457;SDS011;42360;42.918;12.366;2023-04-15T12:18:45;1.08;;;0.90;;
56457;SDS011;42360;42.918;12.366;2023-04-15T12:21:20;0.52;;;0.50;;
56457;SDS011;42360;42.918;12.366;2023-04-15T12:23:47;0.20;;;0.20;;
56457;SDS011;42360;42.918;12.366;2023-04-15T12:26:24;0.43;;;0.28;;
56457;SDS011;42360;42.918;12.366;2023-04-15T12:28:59;0.38;;;0.38;;
56457;SDS011;42360;42.918;12.366;2023-04-15T12:31:26;0.20;;;0.20;;
56457;SDS011;42360;42.918;12.366;2023-04-15T12:33:53;0.45;;;0.40;;
56457;SDS011;42360;42.918;12.366;2023-04-15T12:36:22;0.88;;;0.20;;
56457;SDS011;42360;42.918;12.366;2023-04-15T12:38:48;0.30;;;0.30;;
56457;SDS011;42360;42.918;12.366;2023-04-15T12:41:14;0.60;;;0.60;;
56457;SDS011;42360;42.918;12.366;2023-04-15T12:43:40;1.77;;;0.95;;
56457;SDS011;42360;42.918;12.366;2023-04-15T12:46:06;1.85;;;0.40;;
56457;SDS011;42360;42.918;12.366;2023-04-15T12:48:32;1.58;;;0.73;;
56457;SDS011;42360;42.918;12.366;2023-04-15T12:50:58;0.30;;;0.30;;
56457;SDS011;42360;42.918;12.366;2023-04-15T12:53:24;0.20;;;0.20;;
56457;SDS011;42360;42.918;12.366;2023-04-15T12:55:50;1.25;;;0.98;;
56457;SDS011;42360;42.918;12.366;2023-04-15T12:58:16;1.75;;;1.50;;
56457;SDS011;42360;42.918;12.366;2023-04-15T13:00:41;1.52;;;0.90;;
56457;SDS011;42360;42.918;12.366;2023-04-15T13:03:07;2.63;;;1.23;;
56457;SDS011;42360;42.918;12.366;2023-04-15T13:05:32;1.00;;;0.90;;
56457;SDS011;42360;42.918;12.366;2023-04-15T13:07:58;1.50;;;0.70;;
56457;SDS011;42360;42.918;12.366;2023-04-15T13:10:24;1.42;;;1.10;;
56457;SDS011;42360;42.918;12.366;2023-04-15T13:12:50;0.75;;;0.50;;
56457;SDS011;42360;42.918;12.366;2023-04-15T13:15:18;0.20;;;0.20;;
56457;SDS011;42360;42.918;12.366;2023-04-15T13:17:45;0.50;;;0.50;;
56457;SDS011;42360;42.918;12.366;2023-04-15T13:20:11;0.32;;;0.32;;
56457;SDS011;42360;42.918;12.366;2023-04-15T13:22:36;0.40;;;0.40;;
56457;SDS011;42360;42.918;12.366;2023-04-15T13:25:02;0.20;;;0.20;;
56457;SDS011;42360;42.918;12.366;2023-04-15T13:27:27;1.02;;;0.73;;
56457;SDS011;42360;42.918;12.366;2023-04-15T13:29:53;1.65;;;0.63;;
56457;SDS011;42360;42.918;12.366;2023-04-15T13:32:19;0.32;;;0.32;;
56457;SDS011;42360;42.918;12.366;2023-04-15T13:34:45;0.45;;;0.40;;
56457;SDS011;42360;42.918;12.366;2023-04-15T13:37:10;0.47;;;0.40;;
56457;SDS011;42360;42.918;12.366;2023-04-15T13:39:36;0.43;;;0.40;;
56457;SDS011;42360;42.918;12.366;2023-04-15T13:42:01;1.13;;;0.90;;
56457;SDS011;42360;42.918;12.366;2023-04-15T13:44:27;0.30;;;0.30;;
56457;SDS011;42360;42.918;12.366;2023-04-15T13:46:53;0.40;;;0.40;;
56457;SDS011;42360;42.918;12.366;2023-04-15T13:49:19;0.47;;;0.45;;
56457;SDS011;42360;42.918;12.366;2023-04-15T13:51:45;0.38;;;0.38;;
56457;SDS011;42360;42.918;12.366;2023-04-15T13:54:10;2.72;;;1.85;;
56457;SDS011;42360;42.918;12.366;2023-04-15T13:56:36;1.10;;;0.77;;
56457;SDS011;42360;42.918;12.366;2023-04-15T13:59:01;0.55;;;0.50;;
56457;SDS011;42360;42.918;12.366;2023-04-15T14:01:27;0.30;;;0.30;;
56457;SDS011;42360;42.918;12.366;2023-04-15T14:03:53;0.88;;;0.52;;
56457;SDS011;42360;42.918;12.366;2023-04-15T14:06:19;0.45;;;0.45;;
56457;SDS011;42360;42.918;12.366;2023-04-15T14:08:45;0.25;;;0.25;;
56457;SDS011;42360;42.918;12.366;2023-04-15T14:11:10;1.00;;;0.35;;
56457;SDS011;42360;42.918;12.366;2023-04-15T14:13:36;0.20;;;0.20;;
56457;SDS011;42360;42.918;12.366;2023-04-15T14:16:02;0.20;;;0.20;;
56457;SDS011;42360;42.918;12.366;2023-04-15T14:18:27;0.50;;;0.45;;
56457;SDS011;42360;42.918;12.366;2023-04-15T14:20:54;0.60;;;0.60;;
56457;SDS011;42360;42.918;12.366;2023-04-15T14:23:20;0.50;;;0.50;;
56457;SDS011;42360;42.918;12.366;2023-04-15T14:25:46;1.05;;;0.40;;
56457;SDS011;42360;42.918;12.366;2023-04-15T14:28:12;0.25;;;0.20;;
56457;SDS011;42360;42.918;12.366;2023-04-15T14:30:37;0.20;;;0.20;;
56457;SDS011;42360;42.918;12.366;2023-04-15T14:33:03;0.20;;;0.20;;
56457;SDS011;42360;42.918;12.366;2023-04-15T14:35:28;0.20;;;0.20;;
56457;SDS011;42360;42.918;12.366;2023-04-15T14:37:55;0.47;;;0.47;;
56457;SDS011;42360;42.918;12.366;2023-04-15T14:40:20;0.20;;;0.20;;
56457;SDS011;42360;42.918;12.366;2023-04-15T14:42:46;0.65;;;0.40;;